createdAt,value
2019-05-26T00:01:09.506Z,2.60
2019-05-26T00:03:39.289Z,2.60
2019-05-26T00:06:10.513Z,3.02
2019-05-26T00:08:40.142Z,3.00
2019-05-26T00:11:09.844Z,3.00
2019-05-26T00:13:39.386Z,3.10
2019-05-26T00:16:09.087Z,3.00
2019-05-26T00:18:38.650Z,3.10
2019-05-26T00:21:08.194Z,2.80
2019-05-26T00:23:38.751Z,3.02
2019-05-26T00:26:08.562Z,2.63
2019-05-26T00:28:38.143Z,2.87
2019-05-26T00:31:07.573Z,2.87
2019-05-26T00:33:37.096Z,3.00
2019-05-26T00:36:08.455Z,2.67
2019-05-26T00:38:37.974Z,2.58
2019-05-26T00:41:09.416Z,2.80
2019-05-26T00:43:39.983Z,2.90
2019-05-26T00:46:09.637Z,2.85
2019-05-26T00:48:42.616Z,3.00
2019-05-26T00:51:13.875Z,2.73
2019-05-26T00:53:43.407Z,3.00
2019-05-26T00:56:14.906Z,2.87
2019-05-26T00:58:46.171Z,2.77
2019-05-26T01:01:16.709Z,2.80
2019-05-26T01:03:46.483Z,3.20
2019-05-26T01:06:16.090Z,2.90
2019-05-26T01:08:47.074Z,2.80
2019-05-26T01:11:18.064Z,2.80
2019-05-26T01:13:48.644Z,2.93
2019-05-26T01:16:18.264Z,5.33
2019-05-26T01:18:50.351Z,5.60
2019-05-26T01:21:21.064Z,6.33
2019-05-26T01:23:50.505Z,7.87
2019-05-26T01:26:21.118Z,7.27
2019-05-26T01:28:52.632Z,6.30
2019-05-26T01:31:22.045Z,5.77
2019-05-26T01:33:53.421Z,5.65
2019-05-26T01:36:23.147Z,4.77
2019-05-26T01:38:54.895Z,4.50
2019-05-26T01:41:26.078Z,4.97
2019-05-26T01:43:56.689Z,4.00
2019-05-26T01:46:29.793Z,4.90
2019-05-26T01:49:00.692Z,4.90
2019-05-26T01:51:33.705Z,4.80
2019-05-26T01:54:05.031Z,4.73
2019-05-26T01:56:38.235Z,4.42
2019-05-26T01:59:07.695Z,4.50
2019-05-26T02:01:38.378Z,4.60
2019-05-26T02:04:08.142Z,4.08
2019-05-26T02:06:37.606Z,4.47
2019-05-26T02:09:08.898Z,4.47
2019-05-26T02:11:40.278Z,4.70
2019-05-26T02:14:14.535Z,4.60
2019-05-26T02:16:43.008Z,4.70
2019-05-26T02:19:12.823Z,4.70
2019-05-26T02:21:44.786Z,4.60
2019-05-26T02:24:14.316Z,4.63
2019-05-26T02:26:45.535Z,4.72
2019-05-26T02:29:19.021Z,4.80
2019-05-26T02:31:48.525Z,4.40
2019-05-26T02:34:19.998Z,4.37
2019-05-26T02:36:49.625Z,4.10
2019-05-26T02:39:22.222Z,4.50
2019-05-26T02:41:51.813Z,4.30
2019-05-26T02:44:21.335Z,4.50
2019-05-26T02:46:51.783Z,4.53
2019-05-26T02:49:21.552Z,4.23
2019-05-26T02:51:52.783Z,4.10
2019-05-26T02:54:25.116Z,4.50
2019-05-26T02:56:55.025Z,3.90
2019-05-26T02:59:24.583Z,4.03
2019-05-26T03:02:02.973Z,4.17
2019-05-26T03:04:26.489Z,4.70
2019-05-26T03:06:57.570Z,4.00
2019-05-26T03:09:29.295Z,4.30
2019-05-26T03:12:01.367Z,5.00
2019-05-26T03:14:33.850Z,4.23
2019-05-26T03:17:04.704Z,4.53
2019-05-26T03:19:36.293Z,4.40
2019-05-26T03:22:07.654Z,4.90
2019-05-26T03:24:40.187Z,4.45
2019-05-26T03:27:11.113Z,4.30
2019-05-26T03:29:40.730Z,4.67
2019-05-26T03:32:10.240Z,4.73
2019-05-26T03:34:41.007Z,4.60
2019-05-26T03:37:12.937Z,4.73
2019-05-26T03:39:46.350Z,4.70
2019-05-26T03:42:16.773Z,4.62
2019-05-26T03:44:48.021Z,4.50
2019-05-26T03:47:19.994Z,5.13
2019-05-26T03:49:49.722Z,5.30
2019-05-26T03:52:20.415Z,5.00
2019-05-26T03:54:49.940Z,4.80
2019-05-26T03:57:19.556Z,4.87
2019-05-26T03:59:52.003Z,5.00
2019-05-26T04:02:23.303Z,5.10
2019-05-26T04:04:53.175Z,5.00
2019-05-26T04:07:22.680Z,5.30
2019-05-26T04:10:04.775Z,5.00
2019-05-26T04:12:26.986Z,5.37
2019-05-26T04:14:56.421Z,5.47
2019-05-26T04:17:28.808Z,5.70
2019-05-26T04:19:59.075Z,4.97
2019-05-26T04:22:29.030Z,5.30
2019-05-26T04:24:59.154Z,5.20
2019-05-26T04:27:29.310Z,5.42
2019-05-26T04:29:58.942Z,5.37
2019-05-26T04:32:28.854Z,5.25
2019-05-26T04:34:58.939Z,5.40
2019-05-26T04:37:28.936Z,5.10
2019-05-26T04:39:59.001Z,6.00
2019-05-26T04:42:29.226Z,5.42
2019-05-26T04:44:58.818Z,5.70
2019-05-26T04:47:28.898Z,5.90
2019-05-26T04:49:58.968Z,5.60
2019-05-26T04:52:30.128Z,5.07
2019-05-26T04:55:00.520Z,5.13
2019-05-26T04:57:32.414Z,5.70
2019-05-26T05:00:02.149Z,5.10
2019-05-26T05:02:32.473Z,5.07
2019-05-26T05:05:03.662Z,4.80
2019-05-26T05:07:34.355Z,6.03
2019-05-26T05:10:05.107Z,5.13
2019-05-26T05:12:34.919Z,7.25
2019-05-26T05:15:04.730Z,4.97
2019-05-26T05:17:34.477Z,4.60
2019-05-26T05:20:04.129Z,5.20
2019-05-26T05:22:35.914Z,5.00
2019-05-26T05:25:13.886Z,4.78
2019-05-26T05:27:38.507Z,4.50
2019-05-26T05:30:10.993Z,4.83
2019-05-26T05:32:40.436Z,8.03
2019-05-26T05:37:42.512Z,6.00
2019-05-26T05:40:13.639Z,4.20
2019-05-26T05:42:45.162Z,4.90
2019-05-26T05:45:15.247Z,4.60
2019-05-26T05:47:44.756Z,4.65
2019-05-26T05:50:14.753Z,4.08
2019-05-26T05:52:47.187Z,4.20
2019-05-26T05:55:16.928Z,4.40
2019-05-26T05:57:47.533Z,4.43
2019-05-26T06:00:18.764Z,4.80
2019-05-26T06:02:50.367Z,4.57
2019-05-26T06:05:21.351Z,4.67
2019-05-26T06:07:52.429Z,4.70
2019-05-26T06:10:23.356Z,4.60
2019-05-26T06:12:52.826Z,4.77
2019-05-26T06:15:23.467Z,5.03
2019-05-26T06:17:53.456Z,4.80
2019-05-26T06:20:23.004Z,4.80
2019-05-26T06:22:52.565Z,4.77
2019-05-26T06:25:21.969Z,5.60
2019-05-26T06:27:51.394Z,4.70
2019-05-26T06:30:22.480Z,5.50
2019-05-26T06:32:52.020Z,5.23
2019-05-26T06:35:24.187Z,5.40
2019-05-26T06:37:53.829Z,5.73
2019-05-26T06:40:23.311Z,9.38
2019-05-26T06:42:52.922Z,5.77
2019-05-26T06:45:23.356Z,6.00
2019-05-26T06:47:52.830Z,6.90
2019-05-26T06:50:23.336Z,5.97
2019-05-26T06:52:52.882Z,6.10
2019-05-26T06:55:22.408Z,6.30
2019-05-26T06:57:52.389Z,7.30
2019-05-26T07:00:22.531Z,6.20
2019-05-26T07:02:51.947Z,7.93
2019-05-26T07:05:21.413Z,7.33
2019-05-26T07:07:51.293Z,7.20
2019-05-26T07:10:20.713Z,6.60
2019-05-26T07:12:50.196Z,7.87
2019-05-26T07:15:20.352Z,7.70
2019-05-26T07:17:50.031Z,7.60
2019-05-26T07:20:19.494Z,7.50
2019-05-26T07:22:49.264Z,8.60
2019-05-26T07:25:18.863Z,7.80
2019-05-26T07:27:48.504Z,7.40
2019-05-26T07:30:23.394Z,7.67
2019-05-26T07:32:51.279Z,7.83
2019-05-26T07:35:20.836Z,8.43
2019-05-26T07:37:50.419Z,6.90
2019-05-26T07:40:20.070Z,7.47
2019-05-26T07:42:49.506Z,8.33
2019-05-26T07:45:19.263Z,8.00
2019-05-26T07:47:48.785Z,7.50
2019-05-26T07:50:18.254Z,8.53
2019-05-26T07:52:47.802Z,7.80
2019-05-26T07:55:17.464Z,8.23
2019-05-26T07:57:46.978Z,9.07
2019-05-26T08:00:17.210Z,7.97
2019-05-26T08:02:49.541Z,8.58
2019-05-26T08:05:18.999Z,7.73
2019-05-26T08:07:48.453Z,8.60
2019-05-26T08:10:18.324Z,8.77
2019-05-26T08:12:47.720Z,9.00
2019-05-26T08:15:17.359Z,8.17
2019-05-26T08:17:46.816Z,7.97
2019-05-26T08:20:17.150Z,10.50
2019-05-26T08:22:46.714Z,7.50
2019-05-26T08:25:17.333Z,7.47
2019-05-26T08:27:46.832Z,10.28
2019-05-26T08:30:16.398Z,7.23
2019-05-26T08:32:45.829Z,7.83
2019-05-26T08:35:15.687Z,7.93
2019-05-26T08:37:45.371Z,7.83
2019-05-26T08:40:18.584Z,7.90
2019-05-26T08:42:50.394Z,8.10
2019-05-26T08:45:22.051Z,7.40
2019-05-26T08:47:51.977Z,7.90
2019-05-26T08:50:22.190Z,8.10
2019-05-26T08:52:51.920Z,7.50
2019-05-26T08:55:22.841Z,7.67
2019-05-26T08:57:52.326Z,7.03
2019-05-26T09:00:23.991Z,7.63
2019-05-26T09:02:53.510Z,7.87
2019-05-26T09:05:23.231Z,7.87
2019-05-26T09:07:52.778Z,8.13
2019-05-26T09:10:22.516Z,8.60
2019-05-26T09:13:00.774Z,8.60
2019-05-26T09:15:23.726Z,8.27
2019-05-26T09:17:53.215Z,8.57
2019-05-26T09:20:22.821Z,8.83
2019-05-26T09:22:52.402Z,8.63
2019-05-26T09:25:22.112Z,8.00
2019-05-26T09:27:51.573Z,9.67
2019-05-26T09:30:21.894Z,9.67
2019-05-26T09:32:51.359Z,9.43
2019-05-26T09:35:20.879Z,9.23
2019-05-26T09:37:50.474Z,8.70
2019-05-26T09:40:20.797Z,9.77
2019-05-26T09:42:50.206Z,10.07
2019-05-26T09:45:19.939Z,9.27
2019-05-26T09:47:49.399Z,8.90
2019-05-26T09:50:19.031Z,8.47
2019-05-26T09:52:48.757Z,9.43
2019-05-26T09:55:18.479Z,9.07
2019-05-26T09:57:47.967Z,7.70
2019-05-26T10:00:18.184Z,7.83
2019-05-26T10:02:48.002Z,9.13
2019-05-26T10:05:17.665Z,9.30
2019-05-26T10:07:47.121Z,9.75
2019-05-26T10:10:16.936Z,9.40
2019-05-26T10:12:47.549Z,9.15
2019-05-26T10:15:18.967Z,10.80
2019-05-26T10:17:48.817Z,10.90
2019-05-26T10:20:19.763Z,10.90
2019-05-26T10:22:49.264Z,10.27
2019-05-26T10:25:18.795Z,12.03
2019-05-26T10:27:48.364Z,11.10
2019-05-26T10:30:20.191Z,9.87
2019-05-26T10:32:49.629Z,11.77
2019-05-26T10:35:19.183Z,12.70
2019-05-26T10:37:48.806Z,12.60
2019-05-26T10:40:18.564Z,11.73
2019-05-26T10:42:47.973Z,12.30
2019-05-26T10:45:17.947Z,11.73
2019-05-26T10:47:50.428Z,13.80
2019-05-26T10:50:19.990Z,10.90
2019-05-26T10:52:49.520Z,12.40
2019-05-26T10:55:18.955Z,12.27
2019-05-26T10:57:48.413Z,11.73
2019-05-26T11:00:18.709Z,13.00
2019-05-26T11:02:49.195Z,13.43
2019-05-26T11:05:18.910Z,12.97
2019-05-26T11:07:48.556Z,14.03
2019-05-26T11:10:18.388Z,13.77
2019-05-26T11:12:48.898Z,13.17
2019-05-26T11:15:19.725Z,12.10
2019-05-26T11:17:49.616Z,13.53
2019-05-26T11:20:20.309Z,14.20
2019-05-26T11:22:49.823Z,13.68
2019-05-26T11:25:19.280Z,15.97
2019-05-26T11:27:48.726Z,15.07
2019-05-26T11:30:18.682Z,14.40
2019-05-26T11:32:48.243Z,13.70
2019-05-26T11:35:18.448Z,11.17
2019-05-26T11:37:48.027Z,13.27
2019-05-26T11:40:18.034Z,12.63
2019-05-26T11:42:47.491Z,13.15
2019-05-26T11:45:17.412Z,15.73
2019-05-26T11:47:46.809Z,14.20
2019-05-26T11:50:17.323Z,12.80
2019-05-26T11:52:47.534Z,11.53
2019-05-26T11:55:17.025Z,12.07
2019-05-26T11:57:46.523Z,12.13
2019-05-26T12:00:18.841Z,10.90
2019-05-26T12:02:48.330Z,11.80
2019-05-26T12:05:18.160Z,11.65
2019-05-26T12:07:47.901Z,12.73
2019-05-26T12:10:17.680Z,10.80
2019-05-26T12:12:47.090Z,11.70
2019-05-26T12:15:17.356Z,10.50
2019-05-26T12:17:46.768Z,11.30
2019-05-26T12:20:16.707Z,11.43
2019-05-26T12:22:46.620Z,11.43
2019-05-26T12:25:16.416Z,10.60
2019-05-26T12:27:46.227Z,10.40
2019-05-26T12:30:16.425Z,11.00
2019-05-26T12:32:45.949Z,11.63
2019-05-26T12:35:15.903Z,11.08
2019-05-26T12:37:48.271Z,10.93
2019-05-26T12:40:16.967Z,10.55
2019-05-26T12:42:46.998Z,11.40
2019-05-26T12:45:19.539Z,11.50
2019-05-26T12:47:49.707Z,10.73
2019-05-26T12:50:19.386Z,11.37
2019-05-26T12:52:48.878Z,10.47
2019-05-26T12:55:18.312Z,10.63
2019-05-26T12:57:47.710Z,9.77
2019-05-26T13:00:17.574Z,10.93
2019-05-26T13:02:47.092Z,10.07
2019-05-26T13:05:17.040Z,9.97
2019-05-26T13:07:46.586Z,9.68
2019-05-26T13:10:17.296Z,9.45
2019-05-26T13:12:46.789Z,8.90
2019-05-26T13:15:16.729Z,9.03
2019-05-26T13:17:46.135Z,9.25
2019-05-26T13:20:16.732Z,9.30
2019-05-26T13:22:46.172Z,9.83
2019-05-26T13:25:16.313Z,8.75
2019-05-26T13:27:45.872Z,9.57
2019-05-26T13:30:16.737Z,8.50
2019-05-26T13:32:46.156Z,8.70
2019-05-26T13:35:15.721Z,6.93
2019-05-26T13:37:45.247Z,7.60
2019-05-26T13:40:16.617Z,8.45
2019-05-26T13:42:46.068Z,8.53
2019-05-26T13:45:22.775Z,7.83
2019-05-26T13:47:48.549Z,8.30
2019-05-26T13:50:18.892Z,7.80
2019-05-26T13:52:48.479Z,7.43
2019-05-26T13:55:20.466Z,8.60
2019-05-26T13:57:49.956Z,8.20
2019-05-26T14:00:20.312Z,8.63
2019-05-26T14:02:49.840Z,8.80
2019-05-26T14:05:19.549Z,8.50
2019-05-26T14:07:50.777Z,7.75
2019-05-26T14:10:31.674Z,8.23
2019-05-26T14:13:01.070Z,8.30
2019-05-26T14:15:38.112Z,7.57
2019-05-26T14:18:02.691Z,7.43
2019-05-26T14:20:42.707Z,7.60
2019-05-26T14:23:13.015Z,6.70
2019-05-26T14:25:42.643Z,7.00
2019-05-26T14:28:12.085Z,5.83
2019-05-26T14:30:42.470Z,5.60
2019-05-26T14:33:12.402Z,6.12
2019-05-26T14:35:41.810Z,5.90
2019-05-26T14:38:11.365Z,5.50
2019-05-26T14:40:40.897Z,6.43
2019-05-26T14:43:11.823Z,6.17
2019-05-26T14:45:53.001Z,5.28
2019-05-26T14:48:12.525Z,5.97
2019-05-26T14:50:41.963Z,5.37
2019-05-26T14:53:11.447Z,5.23
2019-05-26T14:55:40.854Z,5.05
2019-05-26T14:58:16.294Z,4.83
2019-05-26T15:00:41.633Z,4.87
2019-05-26T15:03:11.068Z,5.75
2019-05-26T15:05:40.657Z,4.80
2019-05-26T15:08:10.198Z,5.20
2019-05-26T15:10:39.614Z,5.90
2019-05-26T15:13:09.220Z,6.20
2019-05-26T15:15:38.920Z,6.43
2019-05-26T15:18:08.485Z,6.55
2019-05-26T15:20:37.927Z,5.50
2019-05-26T15:23:07.412Z,5.77
2019-05-26T15:25:36.857Z,6.08
2019-05-26T15:28:06.271Z,6.60
2019-05-26T15:30:36.953Z,6.17
2019-05-26T15:33:06.400Z,6.60
2019-05-26T15:35:36.232Z,6.15
2019-05-26T15:38:05.776Z,6.00
2019-05-26T15:40:35.239Z,6.00
2019-05-26T15:43:04.936Z,6.37
2019-05-26T15:45:34.570Z,6.33
2019-05-26T15:48:04.010Z,7.43
2019-05-26T15:50:33.414Z,6.90
2019-05-26T15:53:03.026Z,6.77
2019-05-26T15:55:32.671Z,6.70
2019-05-26T15:58:02.144Z,6.47
2019-05-26T16:00:31.788Z,7.27
2019-05-26T16:03:02.583Z,7.47
2019-05-26T16:05:32.114Z,6.70
2019-05-26T16:08:01.639Z,6.70
2019-05-26T16:10:31.191Z,5.57
2019-05-26T16:13:00.696Z,5.73
2019-05-26T16:15:31.036Z,5.90
2019-05-26T16:18:02.370Z,6.43
2019-05-26T16:20:31.956Z,6.77
2019-05-26T16:23:01.488Z,6.13
2019-05-26T16:25:30.918Z,5.87
2019-05-26T16:28:00.533Z,6.17
2019-05-26T16:30:30.613Z,5.50
2019-05-26T16:33:00.653Z,5.62
2019-05-26T16:35:30.572Z,5.50
2019-05-26T16:38:00.769Z,5.70
2019-05-26T16:40:32.206Z,6.13
2019-05-26T16:43:01.700Z,5.07
2019-05-26T16:45:31.511Z,5.60
2019-05-26T16:48:00.997Z,5.00
2019-05-26T16:50:30.710Z,5.10
2019-05-26T16:53:00.606Z,5.40
2019-05-26T16:55:31.110Z,5.90
2019-05-26T16:58:00.566Z,5.70
2019-05-26T17:00:31.447Z,5.73
2019-05-26T17:03:00.944Z,5.60
2019-05-26T17:05:30.677Z,6.57
2019-05-26T17:08:00.780Z,6.37
2019-05-26T17:10:30.723Z,6.23
2019-05-26T17:13:00.734Z,7.47
2019-05-26T17:15:30.885Z,6.63
2019-05-26T17:18:00.875Z,7.00
2019-05-26T17:20:33.495Z,6.87
2019-05-26T17:23:03.109Z,7.37
2019-05-26T17:25:32.551Z,7.00
2019-05-26T17:28:03.177Z,7.90
2019-05-26T17:30:35.033Z,8.60
2019-05-26T17:33:04.430Z,8.70
2019-05-26T17:35:33.873Z,9.03
2019-05-26T17:38:03.386Z,9.27
2019-05-26T17:40:32.808Z,8.37
2019-05-26T17:43:02.608Z,8.70
2019-05-26T17:45:32.365Z,8.73
2019-05-26T17:48:01.885Z,7.75
2019-05-26T17:50:31.315Z,7.70
2019-05-26T17:53:01.072Z,7.30
2019-05-26T17:55:31.046Z,7.55
2019-05-26T17:58:01.078Z,8.07
2019-05-26T18:00:30.977Z,7.77
2019-05-26T18:03:00.884Z,7.20
2019-05-26T18:05:30.987Z,7.73
2019-05-26T18:08:01.153Z,7.23
2019-05-26T18:10:30.954Z,7.17
2019-05-26T18:13:00.923Z,6.87
2019-05-26T18:15:31.002Z,7.47
2019-05-26T18:18:00.863Z,7.30
2019-05-26T18:20:30.951Z,7.40
2019-05-26T18:23:01.130Z,6.87
2019-05-26T18:25:30.943Z,8.10
2019-05-26T18:28:00.883Z,8.37
2019-05-26T18:30:31.312Z,8.30
2019-05-26T18:33:00.893Z,7.97
2019-05-26T18:35:31.003Z,8.43
2019-05-26T18:38:01.120Z,9.37
2019-05-26T18:40:31.034Z,9.48
2019-05-26T18:43:00.990Z,8.93
2019-05-26T18:45:31.028Z,8.53
2019-05-26T18:48:03.385Z,7.93
2019-05-26T18:50:32.470Z,8.13
2019-05-26T18:53:02.112Z,7.20
2019-05-26T18:55:31.692Z,6.50
2019-05-26T18:58:01.291Z,6.60
2019-05-26T19:00:31.462Z,5.87
2019-05-26T19:03:01.121Z,5.43
2019-05-26T19:05:35.843Z,6.33
2019-05-26T19:08:02.241Z,4.93
2019-05-26T19:10:31.683Z,4.80
2019-05-26T19:13:01.105Z,5.10
2019-05-26T19:15:31.269Z,4.60
2019-05-26T19:18:01.206Z,3.80
2019-05-26T19:20:31.040Z,3.80
2019-05-26T19:23:01.052Z,3.30
2019-05-26T19:25:31.140Z,3.00
2019-05-26T19:28:01.074Z,4.00
2019-05-26T19:30:31.218Z,3.20
2019-05-26T19:33:01.178Z,3.40
2019-05-26T19:35:30.677Z,3.50
2019-05-26T19:38:01.131Z,3.30
2019-05-26T19:40:31.082Z,3.20
2019-05-26T19:43:01.096Z,2.87
2019-05-26T19:45:31.200Z,3.20
2019-05-26T19:48:01.235Z,2.97
2019-05-26T19:50:31.831Z,3.17
2019-05-26T19:53:07.174Z,3.30
2019-05-26T19:55:36.655Z,3.00
2019-05-26T19:58:06.273Z,3.10
2019-05-26T20:00:35.706Z,3.50
2019-05-26T20:03:05.996Z,3.40
2019-05-26T20:05:38.053Z,3.27
2019-05-26T20:08:07.806Z,3.30
2019-05-26T20:10:37.208Z,3.03
2019-05-26T20:13:06.666Z,3.62
2019-05-26T20:15:36.957Z,3.60
2019-05-26T20:18:08.545Z,3.17
2019-05-26T20:20:38.535Z,3.73
2019-05-26T20:23:09.779Z,3.50
2019-05-26T20:25:39.164Z,3.77
2019-05-26T20:28:08.689Z,3.80
2019-05-26T20:30:38.154Z,3.63
2019-05-26T20:33:07.600Z,3.58
2019-05-26T20:35:36.995Z,4.43
2019-05-26T20:38:06.493Z,3.77
2019-05-26T20:40:35.912Z,4.12
2019-05-26T20:43:05.495Z,4.33
2019-05-26T20:45:35.002Z,4.90
2019-05-26T20:48:04.411Z,4.30
2019-05-26T20:50:33.877Z,4.53
2019-05-26T20:53:03.685Z,4.73
2019-05-26T20:55:33.175Z,5.50
2019-05-26T20:58:02.911Z,4.67
2019-05-26T21:00:32.927Z,5.43
2019-05-26T21:03:02.422Z,5.30
2019-05-26T21:05:31.899Z,5.63
2019-05-26T21:08:01.466Z,6.67
2019-05-26T21:10:31.197Z,6.70
2019-05-26T21:13:01.210Z,6.70
2019-05-26T21:15:33.467Z,7.00
2019-05-26T21:18:02.909Z,7.33
2019-05-26T21:20:32.502Z,7.33
2019-05-26T21:23:02.061Z,8.00
2019-05-26T21:25:31.545Z,8.10
2019-05-26T21:28:01.257Z,8.30
2019-05-26T21:30:31.544Z,8.07
2019-05-26T21:33:01.277Z,9.00
2019-05-26T21:35:31.181Z,8.83
2019-05-26T21:38:01.467Z,8.27
2019-05-26T21:40:31.503Z,8.50
2019-05-26T21:43:01.272Z,9.10
2019-05-26T21:45:31.655Z,8.37
2019-05-26T21:48:01.616Z,9.03
2019-05-26T21:50:31.190Z,8.18
2019-05-26T21:53:01.399Z,9.00
2019-05-26T21:55:31.281Z,9.03
2019-05-26T21:58:01.334Z,8.40
2019-05-26T22:00:37.833Z,7.80
2019-05-26T22:03:07.678Z,9.08
2019-05-26T22:05:37.153Z,8.40
2019-05-26T22:08:06.762Z,8.40
2019-05-26T22:10:36.240Z,6.80
2019-05-26T22:13:05.888Z,9.50
2019-05-26T22:15:35.379Z,7.93
2019-05-26T22:18:04.974Z,6.40
2019-05-26T22:20:34.486Z,7.27
2019-05-26T22:23:04.170Z,7.07
2019-05-26T22:25:33.691Z,5.87
2019-05-26T22:28:03.171Z,5.07
2019-05-26T22:30:32.611Z,7.90
2019-05-26T22:33:02.040Z,5.03
2019-05-26T22:35:31.622Z,6.40
2019-05-26T22:38:01.494Z,4.60
2019-05-26T22:40:31.391Z,4.50
2019-05-26T22:43:01.345Z,4.40
2019-05-26T22:45:31.599Z,3.83
2019-05-26T22:48:01.376Z,4.00
2019-05-26T22:50:31.618Z,4.63
2019-05-26T22:53:01.593Z,4.70
2019-05-26T22:55:31.407Z,4.47
2019-05-26T22:58:01.460Z,4.10
2019-05-26T23:00:31.675Z,4.15
2019-05-26T23:03:01.509Z,4.20
2019-05-26T23:05:32.890Z,4.10
2019-05-26T23:08:02.518Z,3.50
2019-05-26T23:10:31.979Z,3.97
2019-05-26T23:13:01.421Z,3.22
2019-05-26T23:15:32.055Z,3.62
2019-05-26T23:18:01.542Z,13.77
2019-05-26T23:20:31.437Z,4.00
2019-05-26T23:23:01.606Z,4.10
2019-05-26T23:25:31.744Z,5.00
2019-05-26T23:28:01.467Z,4.87
2019-05-26T23:30:31.659Z,2.93
2019-05-26T23:33:01.435Z,3.10
2019-05-26T23:35:31.430Z,2.50
2019-05-26T23:38:01.666Z,2.70
2019-05-26T23:40:31.558Z,2.50
2019-05-26T23:43:01.977Z,2.67
2019-05-26T23:45:31.742Z,2.17
2019-05-26T23:48:01.493Z,2.40
2019-05-26T23:50:31.574Z,2.30
2019-05-26T23:53:01.749Z,2.33
2019-05-26T23:55:31.582Z,2.42
2019-05-26T23:58:01.499Z,2.53
